Time;durP1;ratioP1;P1;durP2;ratioP2;P2;SDS_P1;SDS_P2;PMS_P1;PMS_P2;Temp;Humidity;BMP_temperature;BMP_pressure;BME280_temperature;BME280_humidity;BME280_pressure;Samples;Min_cycle;Max_cycle;Signal;HPM_P1;HPM_P2
2022/11/18 00:01:31;;;;;;;9.90;5.68;;;11.10;99.90;;;11.09;95.81;99247.28;5114392;28;20051;-66
2022/11/18 00:04:00;;;;;;;8.32;5.78;;;11.00;99.90;;;11.06;96.00;99241.25;5114004;28;20047;-66
2022/11/18 00:06:29;;;;;;;6.38;5.18;;;11.00;99.90;;;11.03;96.33;99244.88;5113910;28;20044;-66
2022/11/18 00:09:00;;;;;;;11.07;6.40;;;10.90;99.90;;;10.97;96.87;99239.78;5114237;28;20047;-67
2022/11/18 00:14:19;;;;;;;9.10;5.78;;;10.90;99.90;;;11.03;97.29;99242.22;5113894;28;20065;-66
2022/11/18 00:16:51;;;;;;;8.45;5.85;;;10.90;99.90;;;10.99;97.17;99256.47;5113485;28;20101;-66
2022/11/18 00:19:22;;;;;;;8.85;5.55;;;10.90;99.90;;;11.03;97.35;99242.22;5114103;28;20036;-66
2022/11/18 00:21:50;;;;;;;9.75;5.85;;;10.90;99.90;;;11.02;96.83;99251.06;5113799;28;20043;-66
2022/11/18 00:24:19;;;;;;;9.23;6.05;;;10.90;99.90;;;10.92;97.45;99262.84;5113711;28;20032;-66
2022/11/18 00:26:48;;;;;;;8.55;6.95;;;10.80;99.90;;;11.04;97.17;99264.22;5113604;28;20044;-66
2022/11/18 00:29:18;;;;;;;8.60;6.43;;;10.90;99.90;;;10.94;97.23;99258.38;5095712;28;20040;-67
2022/11/18 00:31:47;;;;;;;11.32;6.28;;;10.90;99.90;;;10.95;97.26;99269.81;5113688;28;20404;-66
2022/11/18 00:34:17;;;;;;;8.50;6.53;;;10.90;99.90;;;10.81;97.33;99278.19;5113840;28;20047;-66
2022/11/18 00:36:47;;;;;;;7.22;5.78;;;10.80;99.90;;;10.88;97.65;99274.44;5113605;28;20043;-66
2022/11/18 00:39:18;;;;;;;8.55;5.70;;;10.70;99.90;;;10.81;97.56;99300.22;5113495;28;20051;-66
2022/11/18 00:44:35;;;;;;;9.15;6.57;;;10.70;99.90;;;10.75;97.68;99283.66;5114354;28;20044;-66
2022/11/18 00:47:04;;;;;;;10.20;6.10;;;10.70;99.90;;;10.51;97.99;99269.41;5113344;28;20428;-66
2022/11/18 00:49:32;;;;;;;10.48;6.10;;;10.60;99.90;;;10.49;98.53;99300.28;5095398;28;20553;-66
2022/11/18 00:52:01;;;;;;;9.85;5.75;;;10.50;99.90;;;10.59;98.95;99307.06;5113418;28;20118;-66
2022/11/18 00:54:29;;;;;;;7.90;5.70;;;10.50;99.90;;;10.53;98.83;99303.75;5113393;28;20055;-66
2022/11/18 00:56:57;;;;;;;9.45;5.90;;;10.50;99.90;;;10.54;99.42;99308.09;5113634;28;20044;-66
2022/11/18 00:59:26;;;;;;;9.48;5.97;;;10.40;99.90;;;10.56;99.18;99319.50;5114094;28;20104;-66
2022/11/18 01:01:55;;;;;;;9.48;6.15;;;10.50;99.90;;;10.51;99.11;99316.13;5113591;28;20040;-66
2022/11/18 01:04:24;;;;;;;8.20;6.30;;;10.40;99.90;;;10.53;99.63;99316.97;5113770;28;20057;-66
2022/11/18 01:06:52;;;;;;;9.63;6.22;;;10.40;99.90;;;10.59;99.69;99316.75;5113719;28;20373;-66
2022/11/18 01:09:20;;;;;;;11.25;6.25;;;10.50;99.90;;;10.39;99.44;99321.78;5113252;28;20047;-66
2022/11/18 01:14:40;;;;;;;9.65;6.53;;;10.30;99.90;;;10.30;100.00;99328.16;5019856;28;20070;-66
2022/11/18 01:17:10;;;;;;;7.90;5.88;;;10.30;99.90;;;10.35;100.00;99326.28;5113153;28;20044;-66
2022/11/18 01:19:38;;;;;;;8.97;6.53;;;10.30;99.90;;;10.43;100.00;99339.28;5113221;28;20130;-66
2022/11/18 01:22:06;;;;;;;9.52;6.38;;;10.30;99.90;;;10.30;100.00;99343.19;5113169;28;20043;-66
2022/11/18 01:24:35;;;;;;;10.02;6.57;;;10.30;99.90;;;10.21;100.00;99338.13;5113078;28;20152;-66
2022/11/18 01:27:03;;;;;;;11.65;7.80;;;10.20;99.90;;;10.22;100.00;99356.56;5113346;28;20040;-66
2022/11/18 01:29:32;;;;;;;12.50;6.93;;;10.20;99.90;;;10.32;100.00;99355.41;5115041;28;20054;-66
2022/11/18 01:32:00;;;;;;;11.43;7.05;;;10.20;99.90;;;10.41;100.00;99355.19;5117500;28;20036;-66
2022/11/18 01:34:49;;;;;;;9.25;6.65;;;10.30;99.90;;;10.28;100.00;99353.75;5116974;28;20040;-66
2022/11/18 01:37:18;;;;;;;8.02;6.20;;;10.30;99.90;;;10.35;100.00;99358.00;5116561;28;20048;-66
2022/11/18 01:39:46;;;;;;;12.00;6.47;;;10.30;99.90;;;10.38;100.00;99365.81;5116790;28;20042;-66
2022/11/18 01:42:16;;;;;;;9.00;6.38;;;10.30;99.90;;;10.35;100.00;99368.56;5116659;28;20138;-66
2022/11/18 01:45:03;;;;;;;11.02;7.00;;;10.30;99.90;;;10.29;100.00;99363.44;5116762;28;20136;-66
2022/11/18 01:47:37;;;;;;;12.48;7.35;;;10.20;99.90;;;10.33;100.00;99375.66;5116954;28;20046;-66
2022/11/18 01:50:07;;;;;;;9.88;6.22;;;10.30;99.90;;;10.37;100.00;99373.78;5116640;28;20069;-66
2022/11/18 01:52:37;;;;;;;13.55;6.80;;;10.30;99.90;;;10.46;100.00;99376.19;5116307;28;20039;-66
2022/11/18 01:55:12;;;;;;;13.18;7.07;;;10.40;99.90;;;10.48;100.00;99372.59;5116551;28;20055;-66
2022/11/18 01:57:41;;;;;;;10.00;6.45;;;10.40;99.90;;;10.52;100.00;99378.66;5116488;28;20484;-66
2022/11/18 02:00:12;;;;;;;8.50;5.80;;;10.50;99.90;;;10.55;100.00;99366.22;5116418;28;20392;-66
2022/11/18 02:02:40;;;;;;;8.60;6.70;;;10.50;99.90;;;10.54;99.91;99380.34;5116704;28;20395;-66
2022/11/18 02:05:11;;;;;;;10.75;6.80;;;10.50;99.90;;;10.69;99.91;99379.03;5098310;28;20472;-66
2022/11/18 02:07:43;;;;;;;8.80;6.93;;;10.60;99.90;;;10.71;99.20;99385.16;5116195;28;20075;-66
2022/11/18 02:10:20;;;;;;;10.82;6.65;;;10.60;99.90;;;10.82;98.90;99386.56;5116558;28;20048;-66
2022/11/18 02:12:50;;;;;;;8.25;6.38;;;10.70;99.90;;;10.87;98.48;99392.59;5098201;28;20100;-66
2022/11/18 02:15:26;;;;;;;9.30;6.45;;;10.70;99.90;;;10.85;98.17;99391.78;5116159;28;20122;-66
2022/11/18 02:18:04;;;;;;;9.15;6.50;;;10.70;99.90;;;10.98;98.08;99397.56;5116136;28;20053;-66
2022/11/18 02:20:36;;;;;;;11.70;6.68;;;10.80;99.90;;;10.89;97.83;99398.72;5116309;28;20392;-66
2022/11/18 02:23:46;;;;;;;9.75;6.20;;;10.80;99.90;;;10.91;97.97;99406.59;5116333;28;20484;-66
2022/11/18 02:27:02;;;;;;;7.35;6.18;;;10.80;99.90;;;10.93;97.90;99402.13;5115930;28;20048;-66
2022/11/18 02:29:39;;;;;;;11.40;5.95;;;10.80;99.90;;;10.94;97.75;99410.94;5085492;28;20062;-66
2022/11/18 02:32:14;;;;;;;13.38;6.72;;;10.80;99.90;;;10.88;97.78;99412.84;5116111;28;20126;-66
2022/11/18 02:34:50;;;;;;;11.63;6.60;;;10.80;99.90;;;10.88;97.92;99423.41;5097803;28;20075;-67
2022/11/18 02:37:27;;;;;;;12.13;6.85;;;10.70;99.90;;;10.82;97.80;99415.66;5115721;28;20127;-66
2022/11/18 02:40:02;;;;;;;11.15;6.32;;;10.70;99.90;;;10.60;98.29;99396.03;5115635;28;20469;-66
2022/11/18 02:42:33;;;;;;;11.18;6.80;;;10.70;99.90;;;10.83;98.43;99428.00;5115631;28;20067;-66
2022/11/18 02:45:08;;;;;;;12.18;7.03;;;10.70;99.90;;;10.76;98.11;99428.22;5097677;28;20047;-66
2022/11/18 02:47:38;;;;;;;12.20;6.90;;;10.70;99.90;;;10.72;98.59;99419.47;5115930;28;20070;-66
2022/11/18 02:50:11;;;;;;;11.32;7.70;;;10.60;99.90;;;10.79;98.54;99422.81;5115780;28;20089;-66
2022/11/18 02:52:40;;;;;;;10.10;6.93;;;10.60;99.90;;;10.85;98.37;99422.66;5115250;28;20113;-66
2022/11/18 02:55:12;;;;;;;10.07;6.97;;;10.70;99.90;;;10.84;98.31;99427.06;5115401;28;20113;-66
2022/11/18 02:57:43;;;;;;;9.43;6.47;;;10.70;99.90;;;10.92;98.29;99434.78;5115704;28;20436;-66
2022/11/18 03:00:15;;;;;;;8.73;6.47;;;10.70;99.90;;;10.94;98.21;99432.09;5115283;28;20126;-66
2022/11/18 03:02:46;;;;;;;12.50;6.85;;;10.80;99.90;;;10.89;98.17;99432.22;5115203;28;20054;-66
2022/11/18 03:05:20;;;;;;;11.23;6.50;;;10.80;99.90;;;10.89;98.86;99429.59;5115213;28;20119;-66
2022/11/18 03:07:55;;;;;;;9.63;7.28;;;10.80;99.90;;;10.94;98.73;99434.75;5115037;28;20495;-66
2022/11/18 03:10:30;;;;;;;16.70;7.25;;;10.80;99.90;;;10.93;99.00;99443.59;5115325;28;20052;-66
2022/11/18 03:13:06;;;;;;;12.02;6.72;;;10.80;99.90;;;10.99;98.84;99435.47;5115004;28;20437;-66
2022/11/18 03:15:46;;;;;;;9.63;7.10;;;10.90;99.90;;;10.94;98.94;99456.75;5114999;28;20574;-66
2022/11/18 03:18:22;;;;;;;13.48;7.07;;;10.80;99.90;;;10.86;99.25;99445.53;5114971;28;20404;-66
2022/11/18 03:20:57;;;;;;;13.10;6.72;;;10.80;99.90;;;10.96;99.46;99446.13;5115437;28;20050;-66
2022/11/18 03:23:32;;;;;;;12.32;7.32;;;10.80;99.90;;;10.99;99.09;99469.88;5096774;28;20515;-66
2022/11/18 03:26:05;;;;;;;10.93;7.25;;;10.90;99.90;;;10.98;99.14;99445.19;5114797;28;20405;-66
2022/11/18 03:28:38;;;;;;;12.32;7.32;;;10.90;99.90;;;11.05;99.10;99445.88;5114913;28;20043;-66
2022/11/18 03:31:14;;;;;;;11.90;7.57;;;10.90;99.90;;;11.07;98.81;99455.47;5115172;28;20488;-66
2022/11/18 03:33:49;;;;;;;10.68;6.93;;;10.90;99.90;;;11.13;98.49;99451.81;5114490;28;20040;-66
2022/11/18 03:36:22;;;;;;;11.82;6.45;;;11.00;99.90;;;11.11;98.30;99446.56;5096737;28;20542;-66
2022/11/18 03:38:55;;;;;;;13.13;7.13;;;11.00;99.90;;;11.06;98.07;99458.19;5114512;28;20051;-66
2022/11/18 03:41:26;;;;;;;12.30;6.68;;;11.00;99.90;;;11.11;97.78;99462.44;5114506;28;20559;-68
2022/11/18 03:43:59;;;;;;;11.75;7.10;;;11.00;99.90;;;11.01;97.67;99468.91;5115020;28;20086;-68
2022/11/18 03:46:36;;;;;;;15.18;7.47;;;10.90;99.90;;;11.08;97.30;99470.47;5114656;28;20123;-68
2022/11/18 03:49:08;;;;;;;11.13;6.50;;;10.90;99.90;;;10.98;97.31;99476.03;5114700;28;20065;-67
2022/11/18 03:51:41;;;;;;;11.68;6.65;;;10.90;99.90;;;10.96;97.23;99470.81;5113881;28;20047;-68
2022/11/18 03:54:14;;;;;;;11.07;6.90;;;10.80;99.90;;;11.04;97.04;99474.09;5114268;28;20067;-67
2022/11/18 03:56:47;;;;;;;9.77;6.45;;;10.90;99.90;;;11.05;96.53;99477.63;5114462;28;20130;-67
2022/11/18 03:59:22;;;;;;;13.25;6.88;;;10.90;99.90;;;11.12;96.34;99484.47;5114187;28;20043;-67
2022/11/18 04:01:56;;;;;;;10.07;6.32;;;10.90;99.90;;;11.12;95.91;99498.56;5114698;28;20469;-67
2022/11/18 04:04:26;;;;;;;11.68;6.78;;;11.00;99.90;;;10.84;96.45;99487.91;5114316;28;20044;-67
2022/11/18 04:07:03;;;;;;;12.05;6.65;;;10.80;99.90;;;10.95;96.65;99494.66;5114017;28;20039;-67
2022/11/18 04:09:41;;;;;;;11.82;6.72;;;10.80;99.90;;;11.00;96.66;99492.75;5113934;28;20130;-67
2022/11/18 04:12:15;;;;;;;11.93;6.75;;;10.80;99.90;;;10.87;97.05;99501.06;5113951;28;20046;-67
2022/11/18 04:14:45;;;;;;;15.15;7.20;;;10.80;99.90;;;10.59;97.54;99485.94;5114184;28;20047;-67
2022/11/18 04:17:17;;;;;;;12.38;7.35;;;10.70;99.90;;;10.80;97.65;99512.69;5114126;28;20397;-67
2022/11/18 04:19:46;;;;;;;12.13;7.65;;;10.70;99.90;;;10.85;97.80;99502.00;5114084;28;20051;-67
2022/11/18 04:22:15;;;;;;;9.50;6.60;;;10.70;99.90;;;11.01;97.64;99510.38;5113748;28;20035;-67
2022/11/18 04:24:43;;;;;;;18.50;7.70;;;10.80;99.90;;;10.94;97.11;99520.25;5095792;28;20071;-67
2022/11/18 04:27:12;;;;;;;15.40;7.15;;;10.80;99.90;;;10.94;97.18;99514.97;5113690;28;20043;-67
2022/11/18 04:29:40;;;;;;;11.07;6.90;;;10.80;99.90;;;11.02;96.70;99526.19;5095532;28;20071;-67
2022/11/18 04:32:08;;;;;;;13.18;7.07;;;10.90;99.90;;;10.92;96.48;99535.28;5113657;28;20404;-67
2022/11/18 04:34:38;;;;;;;11.35;6.97;;;10.80;99.90;;;10.94;96.54;99529.97;5113561;28;20108;-69
2022/11/18 04:37:06;;;;;;;10.02;7.20;;;10.80;99.90;;;10.83;96.48;99531.13;5113858;28;20047;-67
2022/11/18 04:39:35;;;;;;;14.25;6.85;;;10.80;99.90;;;10.93;96.99;99534.41;5113529;28;20505;-67
2022/11/18 04:42:03;;;;;;;15.68;6.82;;;10.80;99.90;;;10.97;96.50;99544.00;5114048;28;20043;-67
2022/11/18 04:44:33;;;;;;;11.07;6.70;;;10.80;99.90;;;10.89;96.84;99538.03;5113473;28;20096;-67
2022/11/18 04:47:05;;;;;;;14.70;6.35;;;10.80;99.90;;;10.97;96.74;99553.69;5113565;28;20050;-67
2022/11/18 04:49:34;;;;;;;9.85;7.10;;;10.80;99.90;;;10.99;96.58;99550.09;5113707;28;20067;-67
2022/11/18 04:52:05;;;;;;;12.25;6.97;;;10.80;99.90;;;11.00;96.48;99549.19;5113432;28;20048;-67
2022/11/18 04:54:33;;;;;;;;;;;10.90;99.90;;;11.06;95.64;99564.88;5113706;28;20106;-67
2022/11/18 04:57:01;;;;;;;9.30;5.90;;;10.90;99.90;;;11.01;95.61;99558.88;5113381;28;19926;-68
2022/11/18 04:59:30;;;;;;;13.00;6.78;;;10.90;99.90;;;10.99;95.38;99558.03;5113347;28;20047;-67
2022/11/18 05:01:59;;;;;;;13.65;6.70;;;10.90;99.90;;;11.01;95.39;99566.81;5113276;28;20485;-67
2022/11/18 05:04:31;;;;;;;12.00;6.25;;;10.80;99.90;;;10.87;95.32;99592.75;5117276;28;20050;-67
2022/11/18 05:07:01;;;;;;;9.68;5.82;;;10.80;99.90;;;10.20;95.71;99444.72;5117471;28;20067;-67
2022/11/18 05:09:31;;;;;;;11.35;7.07;;;10.80;99.90;;;10.79;95.92;99574.44;5099372;28;20105;-67
2022/11/18 05:14:46;;;;;;;9.00;6.10;;;10.70;99.90;;;10.76;96.22;99574.50;5117361;28;20408;-67
2022/11/18 05:17:19;;;;;;;15.48;6.72;;;10.60;99.90;;;10.07;96.39;99474.94;5117521;28;20090;-67
2022/11/18 05:19:47;;;;;;;9.65;6.00;;;10.60;99.90;;;10.72;96.79;99579.94;5117470;28;20123;-67
2022/11/18 05:22:16;;;;;;;11.43;6.40;;;10.60;99.90;;;10.79;96.79;99585.03;5117130;28;20040;-67
2022/11/18 05:24:46;;;;;;;10.73;6.10;;;10.60;99.90;;;10.89;96.32;99589.16;5117048;28;20052;-67
2022/11/18 05:27:14;;;;;;;9.55;6.15;;;10.70;99.90;;;10.83;96.26;99599.03;5099000;28;20092;-67
2022/11/18 05:29:42;;;;;;;14.43;6.82;;;10.70;99.90;;;10.77;96.13;99596.53;5116991;28;20031;-67
2022/11/18 05:32:11;;;;;;;13.70;6.63;;;10.60;99.90;;;10.69;96.23;99594.09;5116986;28;20097;-68
2022/11/18 05:34:40;;;;;;;11.35;6.50;;;10.60;99.90;;;10.60;96.89;99585.53;5117210;28;20373;-67
2022/11/18 05:37:09;;;;;;;10.75;6.43;;;10.50;99.90;;;10.72;96.62;99583.41;5116902;28;20451;-67
2022/11/18 05:39:37;;;;;;;18.50;7.32;;;10.60;99.90;;;10.61;96.63;99593.41;5116824;28;20374;-67
2022/11/18 05:44:53;;;;;;;14.93;6.35;;;10.40;99.90;;;10.41;97.94;99602.75;5116989;28;20472;-67
2022/11/18 05:47:26;;;;;;;13.02;6.40;;;10.30;99.90;;;10.51;97.87;99602.47;5116765;28;20071;-67
2022/11/18 05:49:54;;;;;;;12.77;6.25;;;10.40;99.90;;;10.42;98.05;99609.75;5116882;28;20043;-67
2022/11/18 05:52:22;;;;;;;13.57;6.80;;;10.30;99.90;;;10.50;98.13;99615.72;5116627;28;20093;-67
2022/11/18 05:54:51;;;;;;;16.27;6.60;;;10.40;99.90;;;10.42;98.34;99604.47;5116990;28;20073;-67
2022/11/18 05:57:21;;;;;;;12.77;6.22;;;10.40;99.90;;;10.51;98.24;99622.78;5116508;28;20125;-67
2022/11/18 05:59:49;;;;;;;16.07;6.83;;;10.40;99.90;;;10.48;98.08;99605.19;5098451;28;20479;-67
2022/11/18 06:02:22;;;;;;;15.10;7.22;;;10.40;99.90;;;10.58;97.60;99625.22;5116386;28;20055;-67
2022/11/18 06:04:57;;;;;;;16.02;7.07;;;10.50;99.90;;;10.58;97.92;99625.22;5116397;28;20050;-67
2022/11/18 06:07:30;;;;;;;11.23;6.80;;;10.40;99.90;;;10.54;97.80;99625.31;5116366;28;20114;-68
2022/11/18 06:10:02;;;;;;;14.60;6.97;;;10.40;99.90;;;10.56;97.66;99634.09;5116238;28;20039;-67
2022/11/18 06:12:39;;;;;;;12.93;6.88;;;10.40;99.90;;;10.43;97.66;99624.72;5116235;28;20063;-68
2022/11/18 06:15:16;;;;;;;15.73;6.90;;;10.40;99.90;;;10.49;97.78;99645.72;5097403;28;20489;-67
2022/11/18 06:17:49;;;;;;;12.23;7.13;;;10.40;99.90;;;10.62;97.60;99647.16;5116172;28;20040;-67
2022/11/18 06:20:19;;;;;;;15.20;7.07;;;10.40;99.90;;;10.49;97.64;99643.09;5116110;28;20052;-67
2022/11/18 06:22:51;;;;;;;13.90;6.68;;;10.40;99.90;;;10.59;97.71;99660.44;5116281;28;20094;-67
2022/11/18 06:25:19;;;;;;;17.63;7.65;;;10.50;99.90;;;10.63;97.48;99651.53;5116220;28;20047;-67
2022/11/18 06:27:51;;;;;;;14.23;6.50;;;10.50;99.90;;;10.47;97.19;99663.41;5115908;28;20047;-67
2022/11/18 06:30:19;;;;;;;28.15;7.20;;;10.40;99.90;;;10.50;97.40;99668.59;5116143;28;20042;-67
2022/11/18 06:32:48;;;;;;;17.15;7.97;;;10.40;99.90;;;10.45;97.58;99667.84;5116085;28;20047;-67
2022/11/18 06:35:16;;;;;;;13.00;6.55;;;10.40;99.90;;;10.49;97.35;99680.09;5115728;28;20122;-67
2022/11/18 06:37:46;;;;;;;13.30;5.88;;;10.40;99.90;;;10.47;97.82;99669.53;5115996;28;20485;-67
2022/11/18 06:40:14;;;;;;;18.13;6.53;;;10.40;99.90;;;10.46;97.60;99680.16;5097892;28;20058;-67
2022/11/18 06:45:30;;;;;;;14.88;7.28;;;10.40;99.90;;;10.51;97.51;99687.06;5115641;28;20098;-67
2022/11/18 06:47:59;;;;;;;18.23;6.88;;;10.40;99.90;;;10.46;97.76;99690.72;5115727;28;20052;-67
2022/11/18 06:50:28;;;;;;;13.90;6.47;;;10.40;99.90;;;10.58;97.43;99691.31;5115582;28;20497;-67
2022/11/18 06:52:56;;;;;;;13.95;6.95;;;10.40;99.90;;;10.50;97.75;99700.31;5115077;28;20055;-66
2022/11/18 06:55:25;;;;;;;13.45;6.28;;;10.40;99.90;;;10.57;97.65;99702.78;5115284;28;20050;-67
2022/11/18 06:57:55;;;;;;;10.43;6.90;;;10.50;99.90;;;10.63;97.23;99707.94;5115458;28;20500;-68
2022/11/18 07:00:23;;;;;;;;;;;10.50;99.90;;;10.65;97.46;99713.19;5115713;28;20507;-67
2022/11/18 07:02:53;;;;;;;12.02;5.93;;;10.50;99.90;;;10.73;97.51;99709.47;5115744;28;19919;-67
2022/11/18 07:05:21;;;;;;;11.23;6.47;;;10.60;99.90;;;10.84;97.12;99712.72;5115122;28;20040;-67
2022/11/18 07:07:49;;;;;;;13.20;5.88;;;10.70;99.90;;;10.86;97.08;99721.47;5115285;28;20435;-67
2022/11/18 07:10:18;;;;;;;10.85;6.40;;;10.70;99.90;;;10.90;97.29;99727.56;5115406;28;20131;-67
2022/11/18 07:12:46;;;;;;;11.38;6.20;;;10.70;99.90;;;10.86;97.57;99733.84;5115260;28;20043;-67
2022/11/18 07:15:15;;;;;;;9.73;6.20;;;10.70;99.90;;;10.96;97.89;99735.34;5114961;28;20050;-67
2022/11/18 07:17:43;;;;;;;13.27;6.13;;;10.80;99.90;;;11.01;97.67;99729.97;5114859;28;20052;-67
2022/11/18 07:20:13;;;;;;;12.05;6.53;;;10.80;99.90;;;10.95;97.62;99714.22;5114772;28;20043;-67
2022/11/18 07:22:41;;;;;;;12.10;6.65;;;10.90;99.90;;;11.03;97.66;99742.25;5114945;28;20040;-67
2022/11/18 07:25:10;;;;;;;10.45;6.20;;;10.90;99.90;;;11.01;97.96;99733.50;5114737;28;20039;-67
2022/11/18 07:27:38;;;;;;;15.45;6.72;;;10.80;99.90;;;11.06;97.93;99739.53;5113696;28;20071;-67
2022/11/18 07:30:08;;;;;;;11.65;6.38;;;10.90;99.90;;;11.14;97.93;99756.09;5114945;28;20048;-67
2022/11/18 07:32:36;;;;;;;16.52;7.38;;;10.90;99.90;;;11.17;97.68;99747.22;5114656;28;20039;-68
2022/11/18 07:35:05;;;;;;;10.65;6.45;;;10.90;99.90;;;11.02;97.57;99761.66;5114838;28;20040;-67
2022/11/18 07:37:35;;;;;;;13.40;6.82;;;11.00;99.90;;;11.01;98.00;99769.66;5114512;28;20039;-67
2022/11/18 07:40:04;;;;;;;15.13;6.97;;;10.90;99.90;;;11.03;97.87;99768.72;5114449;28;20040;-67
2022/11/18 07:42:41;;;;;;;17.27;7.05;;;10.90;99.90;;;10.92;97.83;99770.72;5114374;28;20420;-67
2022/11/18 07:45:23;;;;;;;14.57;6.70;;;10.80;99.90;;;10.84;98.21;99770.03;5114554;28;20393;-67
2022/11/18 07:47:52;;;;;;;21.40;6.88;;;10.70;99.90;;;10.79;98.29;99779.84;5114590;28;20044;-67
2022/11/18 07:50:20;;;;;;;14.63;6.55;;;10.70;99.90;;;10.80;98.34;99779.81;5114147;28;20070;-67
2022/11/18 07:52:49;;;;;;;13.57;7.28;;;10.70;99.90;;;10.81;98.26;99780.69;5096208;28;20445;-68
2022/11/18 07:55:18;;;;;;;16.63;7.35;;;10.70;99.90;;;10.93;98.13;99795.41;5092696;28;20501;-67
2022/11/18 07:57:46;;;;;;;14.52;6.72;;;10.80;99.90;;;11.02;97.84;99806.66;5092778;28;20382;-67
2022/11/18 08:00:15;;;;;;;14.85;7.45;;;10.90;99.90;;;10.99;97.97;99801.44;5094260;28;20044;-67
2022/11/18 08:02:43;;;;;;;18.80;7.93;;;10.80;99.90;;;11.04;97.83;99796.91;5093955;28;20040;-67
2022/11/18 08:05:12;;;;;;;18.38;7.35;;;10.90;99.90;;;11.09;97.76;99804.75;5093607;28;20040;-67
2022/11/18 08:07:45;;;;;;;18.90;6.95;;;11.00;99.90;;;11.15;97.63;99817.84;5094010;28;20486;-67
2022/11/18 08:10:15;;;;;;;15.50;7.00;;;11.00;99.90;;;11.19;97.59;99817.69;5093526;28;20068;-67
2022/11/18 08:12:44;;;;;;;17.80;7.00;;;11.00;99.90;;;11.25;97.21;99824.63;5093873;28;20473;-67
2022/11/18 08:15:12;;;;;;;15.00;6.75;;;11.10;99.90;;;11.26;96.79;99831.66;5093517;28;20040;-67
2022/11/18 08:17:40;;;;;;;18.17;6.38;;;11.10;99.90;;;11.28;96.51;99836.03;5093458;28;20477;-67
2022/11/18 08:20:10;;;;;;;20.75;7.72;;;11.20;99.90;;;11.27;96.18;99844.88;5093450;28;20469;-68
2022/11/18 08:22:38;;;;;;;19.95;7.25;;;11.20;99.90;;;11.33;96.34;99843.84;5093365;28;20139;-67
2022/11/18 08:25:08;;;;;;;21.73;6.50;;;11.10;99.90;;;11.33;96.55;99835.91;5093810;28;20036;-67
2022/11/18 08:27:38;;;;;;;14.02;6.47;;;11.20;99.90;;;11.32;96.41;99837.69;5093334;28;20127;-67
2022/11/18 08:30:08;;;;;;;22.00;7.05;;;11.20;99.90;;;11.38;96.28;99845.47;5093154;28;20047;-67
2022/11/18 08:32:36;;;;;;;15.93;6.43;;;11.30;99.90;;;11.37;96.46;99846.38;5093639;28;20044;-67
2022/11/18 08:35:05;;;;;;;17.00;7.10;;;11.20;99.90;;;11.37;96.13;99853.44;5093184;28;20050;-67
2022/11/18 08:37:38;;;;;;;18.48;6.20;;;11.20;99.90;;;11.37;96.17;99851.69;5093244;28;20048;-67
2022/11/18 08:40:08;;;;;;;15.60;6.30;;;11.30;99.90;;;11.34;96.37;99854.38;5093162;28;20032;-67
2022/11/18 08:42:38;;;;;;;17.00;6.78;;;11.20;99.90;;;11.40;96.15;99864.84;5093135;28;20123;-67
2022/11/18 08:45:08;;;;;;;17.10;7.07;;;11.30;99.90;;;11.32;96.02;99869.47;5093413;28;20072;-67
2022/11/18 08:47:37;;;;;;;21.75;7.07;;;11.20;99.90;;;11.19;96.62;99868.00;5093190;28;20036;-67
2022/11/18 08:50:08;;;;;;;16.02;6.07;;;11.20;99.90;;;11.30;96.70;99871.28;5093353;28;20036;-67
2022/11/18 08:52:37;;;;;;;19.98;7.03;;;11.20;99.90;;;11.37;96.83;99870.22;5093578;28;20051;-67
2022/11/18 08:55:06;;;;;;;19.75;6.93;;;11.20;99.90;;;11.45;96.62;99877.97;5109332;28;20493;-67
2022/11/18 08:57:34;;;;;;;17.45;6.53;;;11.30;99.90;;;11.39;96.93;99881.63;5113349;28;20066;-67
2022/11/18 09:00:05;;;;;;;15.52;6.90;;;11.30;99.90;;;11.39;97.04;99876.34;5113332;28;20048;-67
2022/11/18 09:02:34;;;;;;;21.10;7.38;;;11.20;99.90;;;11.34;97.31;99890.59;5113369;28;20043;-67
2022/11/18 09:05:02;;;;;;;19.88;6.93;;;11.30;99.90;;;11.34;97.57;99893.25;5113559;28;20400;-67
2022/11/18 09:07:30;;;;;;;17.45;7.07;;;11.20;99.90;;;11.31;97.44;99882.72;5113243;28;20071;-67
2022/11/18 09:09:59;;;;;;;16.17;6.57;;;11.20;99.90;;;11.35;97.47;99889.69;5113210;28;20554;-67
2022/11/18 09:12:27;;;;;;;17.55;6.90;;;11.30;99.90;;;11.29;97.61;99885.41;5113134;28;20036;-67
2022/11/18 09:14:55;;;;;;;19.88;7.45;;;11.20;99.90;;;11.39;97.74;99891.34;5113559;28;20036;-67
2022/11/18 09:17:43;;;;;;;14.57;6.38;;;11.20;99.90;;;11.42;97.42;99894.78;5113545;28;20047;-67
2022/11/18 09:20:11;;;;;;;15.05;6.32;;;11.30;99.90;;;11.32;97.60;99888.00;5095127;28;20480;-67
2022/11/18 09:22:40;;;;;;;14.85;6.50;;;11.20;99.90;;;11.46;97.60;99898.22;5113351;28;20405;-68
2022/11/18 09:25:09;;;;;;;23.98;8.07;;;11.30;99.90;;;11.28;97.82;99894.28;5112912;28;20458;-67
2022/11/18 09:27:38;;;;;;;20.13;7.00;;;11.20;99.90;;;11.33;97.95;99896.78;5113306;28;20044;-67
2022/11/18 09:30:08;;;;;;;15.77;6.90;;;11.20;99.90;;;11.17;97.91;99890.97;5113015;28;20051;-68
2022/11/18 09:32:36;;;;;;;14.70;6.50;;;11.10;99.90;;;11.29;98.19;99901.28;5113007;28;20075;-68
2022/11/18 09:35:06;;;;;;;19.65;7.00;;;11.20;99.90;;;11.30;98.20;99892.47;5113010;28;20036;-68
2022/11/18 09:37:34;;;;;;;15.80;6.53;;;11.20;99.90;;;11.34;97.88;99911.78;5113003;28;20136;-67
2022/11/18 09:40:03;;;;;;;26.85;6.95;;;11.20;99.90;;;11.16;98.17;99889.25;5112923;28;20040;-67
2022/11/18 09:42:53;;;;;;;16.80;6.53;;;11.20;99.90;;;11.36;97.93;99916.09;5113193;28;20063;-67
2022/11/18 09:45:25;;;;;;;16.43;6.80;;;11.20;99.90;;;11.37;98.05;99911.69;5113227;28;20043;-68
2022/11/18 09:47:58;;;;;;;16.60;6.22;;;11.30;99.90;;;11.27;98.27;99915.44;5113589;28;20695;-67
2022/11/18 09:50:28;;;;;;;21.15;6.47;;;11.20;99.90;;;11.36;98.47;99932.00;5114974;28;20122;-67
2022/11/18 09:53:20;;;;;;;19.65;6.88;;;11.20;99.90;;;11.22;98.08;99920.00;5116424;28;20063;-67
2022/11/18 09:55:50;;;;;;;15.45;6.22;;;11.20;99.90;;;11.31;98.07;99936.53;5116829;28;20438;-67
2022/11/18 09:58:27;;;;;;;16.38;6.53;;;11.20;99.90;;;11.42;98.12;99944.25;5116785;28;20470;-68
2022/11/18 10:00:55;;;;;;;12.10;6.25;;;11.30;99.90;;;11.39;98.18;99949.59;5117260;28;20035;-68
2022/11/18 10:03:28;;;;;;;21.15;7.10;;;11.30;99.90;;;11.34;98.07;99940.91;5116394;28;20404;-68
2022/11/18 10:06:05;;;;;;;18.83;6.85;;;11.30;99.90;;;11.50;97.88;99948.44;5116368;28;20067;-68
2022/11/18 10:08:41;;;;;;;15.30;6.60;;;11.40;99.90;;;11.53;97.61;99960.75;5098375;28;20393;-67
2022/11/18 10:11:16;;;;;;;15.55;6.13;;;11.40;99.90;;;11.64;97.21;99962.25;5116757;28;20126;-67
2022/11/18 10:13:57;;;;;;;16.20;6.72;;;11.50;99.90;;;11.73;96.81;99962.06;5116201;28;20073;-68
2022/11/18 10:16:36;;;;;;;;;;;11.60;99.90;;;11.62;96.26;99966.72;5116596;28;20071;-68
2022/11/18 10:19:20;;;;;;;17.92;7.05;;;11.50;99.90;;;11.71;96.18;99966.53;5116138;28;19926;-67
2022/11/18 10:22:03;;;;;;;14.45;6.28;;;11.60;99.90;;;11.70;96.09;99967.44;5116592;28;20044;-67
2022/11/18 10:24:43;;;;;;;18.98;6.28;;;11.50;99.90;;;11.79;95.71;99977.81;5116007;28;20428;-67
2022/11/18 10:27:14;;;;;;;17.80;6.35;;;11.60;99.90;;;11.78;95.40;99976.09;5115983;28;20055;-67
2022/11/18 10:29:45;;;;;;;18.48;6.60;;;11.70;99.90;;;11.55;95.29;99945.72;5115931;28;20404;-67
2022/11/18 10:32:15;;;;;;;20.58;6.72;;;11.60;99.90;;;11.64;95.68;99970.19;5115805;28;20126;-67
2022/11/18 10:34:50;;;;;;;16.90;6.75;;;11.60;99.90;;;11.82;95.92;99981.31;5097779;28;20488;-67
2022/11/18 10:37:29;;;;;;;11.93;6.55;;;11.60;99.90;;;11.86;95.66;99980.31;5115718;28;20134;-68
2022/11/18 10:40:26;;;;;;;16.70;6.38;;;11.70;99.90;;;11.90;95.53;99982.00;5116141;28;20043;-67
2022/11/18 10:42:54;;;;;;;12.38;6.50;;;11.80;99.90;;;11.92;95.21;99988.13;5115983;28;20475;-67
2022/11/18 10:45:27;;;;;;;18.92;7.32;;;11.80;99.90;;;11.96;94.72;99979.19;5115797;28;20031;-67
2022/11/18 10:48:03;;;;;;;16.17;6.60;;;11.80;99.90;;;11.70;94.99;99959.50;5115569;28;20050;-67
2022/11/18 10:50:34;;;;;;;16.48;6.28;;;11.70;99.90;;;11.90;94.65;99984.63;5097557;28;20079;-67